PILOTS ONLINE: 158    ATC ONLINE: 25

KBLH

Blythe Airport

Location

IATA BLH
City Blythe
Country  United States
Latitude 33° 37' 9" N
Longitude 114° 43' 1" W
Elevation 399 ft
Type Medium Airport

Map

Weather

METAR
2014/10/02 05:52
KBLH 020552Z AUTO 33013KT 10SM CLR 28/00 A2984 RMK AO2 SLP100 T02830000 10339 20272 51022
TAF
2014/10/02 06:39
TAF KBLH 020538Z 0206/0306 35010G18KT P6SM SKC 
     FM030200 35005KT P6SM SKC

Runways

08/26 6543 ft / 150 ft
17/35 5800 ft / 100 ft

Outbound flights

Callsign Flying to Pilot ATD/STD ETA Aircraft

Inbound flights

Callsign Flying from Pilot ATD ETA Aircraft